Time;durP1;ratioP1;P1;durP2;ratioP2;P2;SDS_P1;SDS_P2;PMS_P1;PMS_P2;Temp;Humidity;BMP_temperature;BMP_pressure;BME280_temperature;BME280_humidity;BME280_pressure;Samples;Min_cycle;Max_cycle;Signal;HPM_P1;HPM_P2
2022/10/18 05:59:55;;;;;;;7.97;5.58;;;;;;;15.96;51.07;103317.61;1691394;82;21304;-51
2022/10/18 06:02:24;;;;;;;8.68;6.40;;;;;;;16.09;49.47;103319.30;1704866;82;21070;-50
2022/10/18 06:04:50;;;;;;;8.98;5.83;;;;;;;16.18;48.81;103324.52;1705296;82;21034;-53
2022/10/18 06:07:17;;;;;;;7.15;6.10;;;;;;;16.25;48.51;103322.75;1706256;82;20991;-50
2022/10/18 06:09:43;;;;;;;7.75;5.00;;;;;;;16.30;48.75;103325.78;1706169;82;21007;-50
2022/10/18 06:12:11;;;;;;;8.20;5.70;;;;;;;16.35;49.47;103327.51;1693645;82;21066;-53
2022/10/18 06:14:39;;;;;;;6.72;5.35;;;;;;;16.39;49.85;103327.92;1706377;82;21026;-50
2022/10/18 06:17:05;;;;;;;8.10;5.75;;;;;;;16.44;50.16;103335.36;1704739;82;21503;-50
2022/10/18 06:19:32;;;;;;;7.05;5.47;;;;;;;16.47;50.56;103344.52;1704144;82;21050;-53
2022/10/18 06:21:58;;;;;;;6.70;4.62;;;;;;;16.52;50.77;103337.53;1705309;83;21050;-50
2022/10/18 06:24:26;;;;;;;6.17;4.87;;;;;;;16.56;50.60;103331.37;1706112;82;21506;-50
2022/10/18 06:26:53;;;;;;;10.25;5.28;;;;;;;16.60;50.52;103335.73;1706428;82;21078;-50
2022/10/18 06:29:20;;;;;;;5.40;4.40;;;;;;;16.63;50.42;103330.47;1704365;82;21042;-51
2022/10/18 06:31:47;;;;;;;7.60;5.20;;;;;;;16.68;50.34;103331.30;1703138;82;21066;-52
2022/10/18 06:34:14;;;;;;;6.97;5.45;;;;;;;16.75;50.16;103331.70;1703369;82;21033;-50
2022/10/18 06:36:40;;;;;;;6.83;5.60;;;;;;;16.82;49.75;103326.81;1703268;82;21085;-50
2022/10/18 06:39:07;;;;;;;6.65;5.78;;;;;;;16.88;49.40;103329.41;1703559;82;21030;-51
2022/10/18 06:41:34;;;;;;;8.70;5.87;;;;;;;16.94;48.90;103318.84;1705443;82;21503;-50
2022/10/18 06:44:12;;;;;;;8.48;6.20;;;;;;;16.97;48.82;103321.02;1696265;83;21034;-50
2022/10/18 06:46:30;;;;;;;7.85;5.78;;;;;;;17.00;48.67;103328.03;1704064;82;21063;-50
2022/10/18 06:48:56;;;;;;;7.80;6.05;;;;;;;17.01;48.48;103315.28;1703288;82;21043;-56
2022/10/18 06:51:23;;;;;;;6.58;5.28;;;;;;;17.02;48.54;103317.05;1702308;82;21078;-52
2022/10/18 06:53:50;;;;;;;10.15;6.45;;;;;;;17.04;48.56;103311.33;1705955;83;21050;-51
2022/10/18 06:56:17;;;;;;;7.72;6.28;;;;;;;17.04;48.60;103313.49;1706303;82;21542;-51
2022/10/18 06:58:43;;;;;;;9.58;6.67;;;;;;;17.07;48.62;103304.71;1705160;82;21027;-55
2022/10/18 07:01:16;;;;;;;8.33;6.60;;;;;;;17.09;48.46;103309.08;1703090;82;21039;-49
2022/10/18 07:03:45;;;;;;;9.40;7.00;;;;;;;17.15;48.42;103305.52;1642101;86;21043;-51
2022/10/18 07:06:15;;;;;;;10.88;7.03;;;;;;;17.19;48.49;103301.97;1677541;84;21012;-50
2022/10/18 07:08:42;;;;;;;10.30;6.65;;;;;;;17.24;48.42;103310.71;1677572;84;21044;-50
2022/10/18 07:11:18;;;;;;;8.45;6.78;;;;;;;17.28;48.48;103301.91;1677525;84;21031;-50
2022/10/18 07:13:45;;;;;;;8.60;6.47;;;;;;;17.31;48.70;103301.01;1677374;84;21072;-54
2022/10/18 07:16:15;;;;;;;9.40;6.65;;;;;;;17.33;48.79;103297.45;1631235;86;21051;-51
2022/10/18 07:18:48;;;;;;;7.42;6.70;;;;;;;17.36;48.68;103294.80;1641980;86;21074;-50
2022/10/18 07:21:16;;;;;;;;;;;;;;;17.40;48.75;103291.69;1593716;89;21078;-50
2022/10/18 07:23:45;;;;;;;9.58;6.55;;;;;;;17.42;48.89;103292.11;1591432;89;20450;-50
2022/10/18 07:26:23;;;;;;;7.95;6.55;;;;;;;17.47;49.05;103292.07;1624442;87;20994;-50
2022/10/18 07:28:54;;;;;;;8.63;6.30;;;;;;;17.52;49.17;103290.28;1589730;89;21068;-50
2022/10/18 07:31:21;;;;;;;8.23;6.87;;;;;;;17.58;49.30;103281.88;1624670;88;21087;-51
2022/10/18 07:33:48;;;;;;;9.03;7.20;;;;;;;17.63;49.44;103274.81;1591100;89;21538;-50
2022/10/18 07:36:15;;;;;;;9.55;7.03;;;;;;;17.70;49.59;103279.10;1624470;87;21046;-50
2022/10/18 07:38:43;;;;;;;9.58;6.58;;;;;;;17.76;49.81;103268.97;1591165;89;21550;-51
2022/10/18 07:41:11;;;;;;;9.98;7.00;;;;;;;17.82;49.90;103265.81;1624242;88;21078;-51
2022/10/18 07:43:49;;;;;;;8.40;6.58;;;;;;;17.87;49.92;103265.30;1591415;89;21071;-51
2022/10/18 07:46:16;;;;;;;8.95;6.60;;;;;;;17.93;49.97;103256.91;1591529;89;21001;-50
2022/10/18 07:48:42;;;;;;;8.50;6.95;;;;;;;18.01;50.43;103257.68;1624328;87;21598;-50
2022/10/18 07:51:09;;;;;;;9.83;6.35;;;;;;;18.08;50.80;103257.56;1591377;89;21038;-50
2022/10/18 07:53:36;;;;;;;9.03;6.67;;;;;;;18.18;51.21;103260.50;1591254;89;21312;-50
2022/10/18 07:56:06;;;;;;;8.00;6.10;;;;;;;18.27;51.51;103257.75;1624348;87;21043;-53
2022/10/18 07:58:34;;;;;;;;;;;;;;;18.37;51.83;103258.48;1601699;88;21046;-51
2022/10/18 08:01:03;;;;;;;9.03;7.25;;;;;;;18.46;52.10;103255.31;1585155;90;20181;-50
2022/10/18 08:03:31;;;;;;;9.85;7.08;;;;;;;18.55;52.07;103248.56;1603412;88;21042;-55
2022/10/18 08:05:58;;;;;;;12.33;7.58;;;;;;;18.64;51.80;103250.19;1603699;88;21588;-50
2022/10/18 08:08:25;;;;;;;10.90;7.62;;;;;;;18.69;51.54;103248.36;1603555;88;21113;-50
2022/10/18 08:10:53;;;;;;;8.88;7.22;;;;;;;18.75;51.80;103247.39;1603521;88;21047;-54
2022/10/18 08:13:21;;;;;;;7.65;6.47;;;;;;;18.81;52.52;103246.84;1603742;88;21077;-52
2022/10/18 08:15:48;;;;;;;10.55;7.22;;;;;;;18.91;53.85;103239.20;1603593;88;21062;-52
2022/10/18 08:18:14;;;;;;;11.15;7.72;;;;;;;19.00;54.76;103241.66;1617321;87;21592;-53
2022/10/18 08:20:44;;;;;;;11.28;7.40;;;;;;;19.11;55.16;103237.07;1616292;87;21056;-52
2022/10/18 08:23:10;;;;;;;9.28;6.67;;;;;;;19.21;55.13;103234.68;1627259;87;21092;-52
2022/10/18 08:25:37;;;;;;;18.95;13.20;;;;;;;19.30;54.28;103232.33;1627628;88;21529;-50
2022/10/18 08:28:06;;;;;;;17.35;14.53;;;;;;;19.36;53.23;103231.80;1627400;87;21572;-50
2022/10/18 08:30:34;;;;;;;16.60;11.68;;;;;;;19.40;52.11;103228.64;1627406;88;21052;-53
2022/10/18 08:33:01;;;;;;;19.70;14.35;;;;;;;19.43;51.74;103231.23;1627474;87;21064;-55
2022/10/18 08:35:28;;;;;;;52.27;38.23;;;;;;;19.44;52.07;103232.96;1627330;85;21053;-51
2022/10/18 08:37:55;;;;;;;65.40;44.08;;;;;;;19.47;52.08;103228.48;1627414;87;21062;-56
2022/10/18 08:40:22;;;;;;;16.67;13.65;;;;;;;19.54;52.42;103229.70;1627501;87;21056;-53
2022/10/18 08:43:20;;;;;;;18.40;13.18;;;;;;;19.63;54.00;103223.78;1627326;87;21561;-51
2022/10/18 08:45:47;;;;;;;11.38;7.67;;;;;;;19.71;53.98;103219.20;1627707;87;21548;-51
2022/10/18 08:48:20;;;;;;;8.70;6.62;;;;;;;19.81;54.39;103221.19;1627515;88;21053;-51
2022/10/18 08:50:47;;;;;;;6.75;6.05;;;;;;;19.90;54.80;103222.33;1604842;89;21141;-53
2022/10/18 08:53:25;;;;;;;6.58;5.85;;;;;;;19.98;55.08;103229.20;1604627;89;21089;-51
2022/10/18 08:56:09;;;;;;;7.20;5.78;;;;;;;20.05;55.31;103224.17;1605013;89;21153;-51
2022/10/18 08:58:35;;;;;;;8.43;5.62;;;;;;;20.14;55.23;103220.46;1597070;89;21034;-50
2022/10/18 09:01:46;;;;;;;6.40;5.65;;;;;;;20.21;55.14;103223.43;1599601;87;21087;-51
2022/10/18 09:04:39;;;;;;;10.82;5.50;;;;;;;20.29;55.22;103229.41;1625350;87;21119;-51
2022/10/18 09:07:21;;;;;;;9.58;5.58;;;;;;;20.38;55.20;103229.17;1629665;88;21032;-50
2022/10/18 09:09:53;;;;;;;6.97;5.20;;;;;;;20.47;54.75;103222.80;1631412;88;21056;-52
2022/10/18 09:12:34;;;;;;;5.75;4.50;;;;;;;20.54;54.41;103223.97;1579415;89;21085;-53
2022/10/18 09:15:16;;;;;;;5.72;4.47;;;;;;;20.61;54.11;103217.59;1576516;91;21056;-49
2022/10/18 09:17:51;;;;;;;9.88;4.62;;;;;;;20.70;53.42;103213.42;1577962;91;21100;-51
2022/10/18 09:20:23;;;;;;;13.55;4.90;;;;;;;20.79;52.78;103217.13;1599130;89;21177;-53
2022/10/18 09:23:00;;;;;;;6.78;4.28;;;;;;;20.89;52.85;103209.41;1603558;88;21064;-50
2022/10/18 09:25:47;;;;;;;6.00;4.70;;;;;;;20.95;51.89;103211.89;1602035;88;21045;-51
2022/10/18 09:28:34;;;;;;;8.20;3.87;;;;;;;21.03;51.83;103211.70;1601400;88;21571;-51
2022/10/18 09:31:24;;;;;;;5.10;3.90;;;;;;;21.10;51.14;103209.77;1599896;88;21083;-51
2022/10/18 09:34:04;;;;;;;7.53;3.65;;;;;;;21.15;50.89;103208.73;1603157;88;21068;-51
2022/10/18 09:36:36;;;;;;;4.15;3.70;;;;;;;21.19;50.61;103202.44;1599217;88;21005;-50
2022/10/18 09:39:19;;;;;;;8.60;3.80;;;;;;;21.22;50.66;103200.17;1602117;88;21081;-50
2022/10/18 09:41:51;;;;;;;4.78;3.95;;;;;;;21.26;50.51;103200.50;1602899;88;21088;-51
2022/10/18 09:44:25;;;;;;;6.22;3.92;;;;;;;21.28;50.45;103194.70;1597322;89;21557;-51
2022/10/18 09:47:23;;;;;;;4.50;3.40;;;;;;;21.32;50.53;103197.67;1558302;90;21743;-50
2022/10/18 09:49:59;;;;;;;7.05;3.47;;;;;;;21.36;50.37;103188.73;1510471;93;21136;-52
2022/10/18 09:52:40;;;;;;;5.45;3.60;;;;;;;21.42;50.09;103184.58;1507302;93;21560;-49
2022/10/18 09:55:23;;;;;;;10.25;4.12;;;;;;;21.46;49.95;103191.08;1533938;92;21076;-51
2022/10/18 09:57:53;;;;;;;3.70;3.33;;;;;;;21.51;49.73;103186.53;1539988;92;21513;-52
2022/10/18 10:00:27;;;;;;;7.95;3.58;;;;;;;21.57;49.37;103190.33;1531446;92;21068;-49
2022/10/18 10:02:54;;;;;;;6.37;3.15;;;;;;;21.62;49.22;103183.55;1523323;92;21588;-51
2022/10/18 10:05:21;;;;;;;6.42;3.02;;;;;;;21.64;48.48;103180.39;1529735;92;21061;-50
2022/10/18 10:07:48;;;;;;;3.45;2.95;;;;;;;21.67;48.21;103178.98;1520942;92;21568;-49
2022/10/18 10:10:20;;;;;;;6.78;3.30;;;;;;;21.70;48.00;103172.29;1582576;89;21100;-50
2022/10/18 10:12:47;;;;;;;3.70;3.02;;;;;;;21.74;48.01;103174.77;1590148;89;21051;-49
2022/10/18 10:15:22;;;;;;;4.15;2.92;;;;;;;21.78;47.92;103171.11;1545926;91;21039;-54
2022/10/18 10:18:05;;;;;;;4.08;3.08;;;;;;;21.81;47.72;103161.80;1530499;92;21139;-51
2022/10/18 10:20:46;;;;;;;6.53;3.30;;;;;;;21.84;47.57;103155.54;1534207;92;21081;-51
2022/10/18 10:23:19;;;;;;;5.40;3.17;;;;;;;21.87;47.51;103154.10;1535936;92;21044;-52
2022/10/18 10:25:53;;;;;;;3.02;2.50;;;;;;;21.91;47.24;103154.42;1575392;89;21043;-49
2022/10/18 10:28:22;;;;;;;3.90;3.37;;;;;;;21.93;47.35;103145.95;1525414;94;21527;-50
2022/10/18 10:30:49;;;;;;;4.28;3.08;;;;;;;21.96;47.28;103139.25;1531898;93;21097;-49
2022/10/18 10:33:33;;;;;;;5.70;3.02;;;;;;;22.00;47.20;103130.73;1521649;93;21118;-49
2022/10/18 10:36:02;;;;;;;4.65;3.77;;;;;;;22.04;47.06;103124.41;1527776;93;21553;-49
2022/10/18 10:38:29;;;;;;;4.85;3.10;;;;;;;22.08;46.92;103124.27;1527635;93;21362;-50
2022/10/18 10:40:56;;;;;;;5.33;3.65;;;;;;;22.08;46.77;103116.31;1526271;93;21082;-50
2022/10/18 10:43:29;;;;;;;3.52;3.22;;;;;;;22.11;46.78;103116.23;1523643;93;21103;-50
2022/10/18 10:46:11;;;;;;;5.20;3.42;;;;;;;22.12;46.90;103108.67;1524235;93;21095;-51
2022/10/18 10:48:50;;;;;;;4.97;2.90;;;;;;;22.14;46.87;103101.53;1519663;93;21081;-51
2022/10/18 10:51:35;;;;;;;5.03;3.50;;;;;;;22.16;46.67;103101.02;1561857;90;21089;-50
2022/10/18 10:54:15;;;;;;;6.22;3.15;;;;;;;22.20;46.60;103093.82;1466283;96;21120;-52
2022/10/18 10:57:10;;;;;;;4.33;3.70;;;;;;;22.19;46.52;103085.02;1458281;97;21076;-50
2022/10/18 10:59:52;;;;;;;5.80;3.35;;;;;;;22.23;46.33;103080.02;1460100;97;21533;-50
2022/10/18 11:02:23;;;;;;;3.67;3.15;;;;;;;22.27;46.24;103079.00;1455643;98;21087;-51
2022/10/18 11:04:55;;;;;;;5.58;3.62;;;;;;;22.29;45.96;103079.81;1460225;98;21115;-50
2022/10/18 11:07:43;;;;;;;4.10;3.25;;;;;;;22.31;45.75;103069.14;1434815;100;21617;-50
2022/10/18 11:10:16;;;;;;;5.90;3.60;;;;;;;22.32;45.76;103067.75;1400710;101;21184;-49
2022/10/18 11:12:53;;;;;;;4.45;3.25;;;;;;;22.33;45.88;103065.53;1401707;101;21102;-50
2022/10/18 11:15:35;;;;;;;4.50;3.22;;;;;;;22.33;45.80;103060.22;1399494;101;21655;-49
2022/10/18 11:18:31;;;;;;;5.22;3.77;;;;;;;22.35;45.52;103057.05;1402419;101;21571;-50
2022/10/18 11:21:21;;;;;;;4.42;3.47;;;;;;;22.37;45.26;103059.19;1357193;105;21184;-53
2022/10/18 11:23:49;;;;;;;4.78;3.60;;;;;;;22.38;45.37;103052.95;1332367;106;21743;-51
2022/10/18 11:26:27;;;;;;;5.25;3.30;;;;;;;22.39;44.89;103052.05;1370373;103;21233;-50
2022/10/18 11:29:35;;;;;;;5.17;3.20;;;;;;;22.36;44.63;103046.83;1364480;103;21187;-50
2022/10/18 11:32:19;;;;;;;4.35;3.50;;;;;;;22.36;44.84;103040.20;1397540;102;21145;-51
2022/10/18 11:35:04;;;;;;;6.25;3.10;;;;;;;22.37;45.03;103030.47;1381984;102;21155;-51
2022/10/18 11:38:05;;;;;;;4.33;3.12;;;;;;;22.38;45.13;103037.03;1425562;99;21771;-49
2022/10/18 11:41:08;;;;;;;4.65;3.52;;;;;;;22.40;45.21;103027.72;1354639;105;21202;-50
2022/10/18 11:43:43;;;;;;;5.00;3.52;;;;;;;22.40;45.24;103023.74;1350683;105;21464;-49
2022/10/18 11:46:46;;;;;;;5.83;3.35;;;;;;;22.40;45.54;103019.28;1347930;106;21193;-49
2022/10/18 11:49:23;;;;;;;7.28;3.65;;;;;;;22.40;45.81;103022.41;1350403;105;21141;-51
2022/10/18 11:52:15;;;;;;;5.22;3.30;;;;;;;22.41;45.89;103019.70;1381413;102;21617;-50
2022/10/18 11:55:18;;;;;;;5.75;3.58;;;;;;;22.43;45.89;103013.88;1385990;103;21181;-50
2022/10/18 11:58:08;;;;;;;5.67;3.30;;;;;;;22.45;46.03;103013.36;1384512;102;21176;-52
2022/10/18 12:00:45;;;;;;;5.78;3.85;;;;;;;22.48;46.02;103010.58;1388091;101;21749;-52
2022/10/18 12:03:35;;;;;;;3.95;3.47;;;;;;;22.51;46.09;103009.61;1378012;102;21155;-50
2022/10/18 12:06:12;;;;;;;4.33;3.77;;;;;;;22.52;46.20;103004.25;1384681;102;21179;-51
2022/10/18 12:08:43;;;;;;;5.28;3.72;;;;;;;22.51;46.42;102993.70;1382268;102;21604;-49
2022/10/18 12:11:24;;;;;;;5.12;4.00;;;;;;;22.51;46.53;102997.22;1346023;105;21181;-52
2022/10/18 12:14:01;;;;;;;9.50;4.20;;;;;;;22.51;46.57;102991.92;1267299;111;21246;-49
2022/10/18 12:16:32;;;;;;;5.67;3.95;;;;;;;22.51;46.66;102984.41;1282027;109;21813;-49
2022/10/18 12:19:05;;;;;;;4.20;3.80;;;;;;;22.50;46.64;102982.69;1313804;108;21191;-50
2022/10/18 12:21:33;;;;;;;6.30;3.83;;;;;;;22.47;46.50;102982.34;1333553;106;21742;-49
2022/10/18 12:24:15;;;;;;;3.60;3.27;;;;;;;22.45;46.31;102981.53;1312386;108;21166;-51
2022/10/18 12:26:42;;;;;;;5.75;3.75;;;;;;;22.43;46.24;102975.41;1325700;104;21245;-49
2022/10/18 12:29:22;;;;;;;4.85;3.17;;;;;;;22.42;46.43;102972.83;1387677;102;21209;-49
2022/10/18 12:31:52;;;;;;;4.03;3.62;;;;;;;22.40;46.47;102963.56;1381127;102;21158;-49
2022/10/18 12:34:37;;;;;;;5.75;3.12;;;;;;;22.40;46.52;102960.91;1386290;102;21087;-48
2022/10/18 12:37:19;;;;;;;4.05;3.62;;;;;;;22.40;46.50;102956.09;1375066;102;21146;-50
2022/10/18 12:39:52;;;;;;;5.42;4.08;;;;;;;22.41;46.67;102957.36;1382281;102;21676;-49
2022/10/18 12:42:23;;;;;;;4.55;3.50;;;;;;;22.40;46.93;102952.12;1384223;102;21179;-54
2022/10/18 12:45:22;;;;;;;4.72;3.58;;;;;;;22.40;47.05;102950.30;1382158;102;21183;-49
2022/10/18 12:47:48;;;;;;;5.17;3.98;;;;;;;22.40;47.16;102950.30;1385937;102;21212;-50
2022/10/18 12:50:29;;;;;;;6.00;3.75;;;;;;;22.40;47.58;102942.34;1385838;102;21142;-51
2022/10/18 12:53:25;;;;;;;7.22;3.58;;;;;;;22.41;47.82;102946.75;1357777;104;21214;-50
2022/10/18 12:55:53;;;;;;;5.65;3.60;;;;;;;22.42;47.92;102927.23;1337140;105;21165;-51
2022/10/18 12:58:29;;;;;;;4.80;3.75;;;;;;;22.45;48.08;102931.58;1338186;105;21221;-49
2022/10/18 13:01:01;;;;;;;4.37;3.50;;;;;;;22.46;48.17;102924.87;1346989;105;21161;-49
2022/10/18 13:03:38;;;;;;;5.55;4.05;;;;;;;22.47;48.23;102922.64;1309451;108;21122;-50
2022/10/18 13:06:05;;;;;;;5.08;3.90;;;;;;;22.48;48.14;102916.88;1312529;108;21126;-49
2022/10/18 13:08:41;;;;;;;6.83;4.03;;;;;;;22.48;48.03;102911.09;1315797;108;21204;-50
2022/10/18 13:11:27;;;;;;;6.10;3.98;;;;;;;22.47;47.96;102906.72;1333400;105;21646;-50
2022/10/18 13:14:20;;;;;;;8.25;3.37;;;;;;;22.45;47.81;102906.37;1361888;101;21167;-50
2022/10/18 13:17:08;;;;;;;3.80;3.27;;;;;;;22.41;48.02;102900.77;1435557;99;21165;-51
2022/10/18 13:20:21;;;;;;;6.12;3.20;;;;;;;22.40;48.10;102897.25;1443058;98;21104;-50
2022/10/18 13:23:08;;;;;;;4.15;3.05;;;;;;;22.39;47.83;102892.01;1446031;98;21623;-51
2022/10/18 13:26:00;;;;;;;4.67;2.85;;;;;;;22.35;46.53;102884.64;1379971;103;21161;-49
2022/10/18 13:28:54;;;;;;;5.10;2.98;;;;;;;22.34;46.12;102884.70;1365060;103;21125;-50
2022/10/18 13:31:44;;;;;;;3.83;3.12;;;;;;;22.31;46.01;102879.05;1378152;102;21145;-54
2022/10/18 13:34:26;;;;;;;4.12;2.67;;;;;;;22.29;45.97;102883.54;1370204;102;21606;-50
2022/10/18 13:37:12;;;;;;;4.25;2.87;;;;;;;22.26;46.03;102877.00;1397852;101;21608;-52
2022/10/18 13:39:39;;;;;;;3.02;2.62;;;;;;;22.23;46.17;102878.47;1389539;101;21152;-50
2022/10/18 13:42:18;;;;;;;3.75;2.75;;;;;;;22.20;46.43;102875.91;1390406;101;21125;-50
2022/10/18 13:44:45;;;;;;;5.35;3.12;;;;;;;22.18;46.62;102865.81;1389724;102;21160;-50
2022/10/18 13:47:15;;;;;;;3.65;2.58;;;;;;;22.16;46.91;102862.36;1401509;101;21109;-51
2022/10/18 13:50:09;;;;;;;5.23;2.67;;;;;;;22.14;47.10;102862.00;1402268;101;21217;-51
2022/10/18 13:53:03;;;;;;;4.92;3.02;;;;;;;22.12;47.28;102862.06;1370223;103;21173;-51
2022/10/18 13:56:00;;;;;;;3.15;2.52;;;;;;;22.08;47.16;102852.50;1357869;104;21157;-53
2022/10/18 13:58:33;;;;;;;4.08;2.70;;;;;;;22.06;47.36;102847.71;1376801;102;21162;-52
2022/10/18 14:01:35;;;;;;;3.98;2.70;;;;;;;22.04;47.44;102843.37;1392158;101;21665;-49
2022/10/18 14:04:10;;;;;;;3.52;2.65;;;;;;;22.03;47.59;102838.53;1424914;99;21114;-51
2022/10/18 14:06:44;;;;;;;3.40;2.80;;;;;;;22.01;47.78;102832.41;1500152;93;21140;-53
2022/10/18 14:09:22;;;;;;;4.85;3.02;;;;;;;22.00;47.85;102832.03;1594985;88;21061;-54
2022/10/18 14:11:53;;;;;;;3.47;2.72;;;;;;;21.98;48.08;102825.92;1578877;88;21101;-50
2022/10/18 14:14:46;;;;;;;3.95;2.60;;;;;;;21.95;48.28;102826.02;1550461;91;21151;-54
2022/10/18 14:17:44;;;;;;;5.30;3.05;;;;;;;21.90;48.36;102817.38;1548269;91;21061;-51
2022/10/18 14:20:27;;;;;;;8.23;3.17;;;;;;;21.86;48.67;102815.77;1549552;91;21152;-54
2022/10/18 14:23:06;;;;;;;4.17;2.90;;;;;;;21.79;49.14;102811.56;1506116;95;21252;-57
2022/10/18 14:25:35;;;;;;;2.75;2.50;;;;;;;21.75;49.09;102808.61;1506381;95;21125;-52
2022/10/18 14:28:20;;;;;;;4.92;3.10;;;;;;;21.70;48.92;102806.61;1506219;95;21165;-51
2022/10/18 14:31:06;;;;;;;4.65;2.87;;;;;;;21.68;48.97;102797.36;1503387;95;21069;-54
2022/10/18 14:33:54;;;;;;;3.85;2.98;;;;;;;21.66;49.08;102801.85;1603885;88;21061;-50
2022/10/18 14:36:24;;;;;;;3.72;3.40;;;;;;;21.62;49.16;102792.28;1607385;89;21542;-50
2022/10/18 14:38:59;;;;;;;2.83;2.55;;;;;;;21.59;49.44;102784.92;1607477;89;21030;-51
2022/10/18 14:41:27;;;;;;;6.15;2.77;;;;;;;21.53;49.70;102783.81;1607407;89;21623;-54
2022/10/18 14:46:53;;;;;;;5.35;2.98;;;;;;;21.45;50.03;102781.41;1501182;95;21131;-49
2022/10/18 14:49:20;;;;;;;4.03;3.00;;;;;;;21.41;50.23;102774.97;1500898;95;21178;-50
2022/10/18 14:51:52;;;;;;;3.50;2.92;;;;;;;21.37;50.37;102766.73;1502010;95;21079;-51
2022/10/18 14:54:31;;;;;;;6.22;2.95;;;;;;;21.33;50.54;102769.08;1502833;95;21131;-53
2022/10/18 14:56:59;;;;;;;3.85;2.90;;;;;;;21.31;50.60;102770.44;1473551;95;21093;-53
2022/10/18 14:59:29;;;;;;;5.60;2.67;;;;;;;21.28;50.61;102762.61;1429969;99;21153;-50
2022/10/18 15:01:59;;;;;;;4.05;2.77;;;;;;;21.26;50.66;102761.80;1468648;97;21094;-50
2022/10/18 15:04:31;;;;;;;5.35;2.98;;;;;;;21.25;50.73;102757.41;1467445;97;21577;-53
2022/10/18 15:06:58;;;;;;;7.47;3.05;;;;;;;21.22;50.89;102764.16;1465875;97;21102;-50
2022/10/18 15:09:24;;;;;;;4.30;3.00;;;;;;;21.20;51.15;102758.50;1433001;99;21686;-49
2022/10/18 15:11:53;;;;;;;3.33;2.92;;;;;;;21.18;51.23;102756.36;1428590;99;21149;-50
2022/10/18 15:14:19;;;;;;;5.67;3.40;;;;;;;21.15;51.24;102753.35;1432640;99;21106;-49
2022/10/18 15:16:47;;;;;;;3.22;2.60;;;;;;;21.12;51.26;102750.83;1401705;101;21234;-56
2022/10/18 15:19:24;;;;;;;4.62;3.52;;;;;;;21.10;51.35;102750.46;1421939;99;21682;-49
2022/10/18 15:21:59;;;;;;;4.30;2.98;;;;;;;21.06;51.55;102751.87;1433502;100;21133;-50
2022/10/18 15:24:35;;;;;;;4.90;2.67;;;;;;;21.03;51.68;102744.05;1441596;99;21723;-49
2022/10/18 15:27:23;;;;;;;5.55;2.85;;;;;;;21.02;51.69;102742.76;1467582;97;21042;-49
2022/10/18 15:29:50;;;;;;;7.15;3.15;;;;;;;20.98;51.71;102738.00;1491627;93;21081;-53
2022/10/18 15:32:26;;;;;;;5.83;2.85;;;;;;;20.95;51.76;102739.45;1516366;94;21110;-54
2022/10/18 15:34:53;;;;;;;4.92;2.92;;;;;;;20.94;51.98;102733.73;1531963;93;21589;-51
2022/10/18 15:37:42;;;;;;;6.37;2.95;;;;;;;20.90;52.16;102732.11;1494731;94;21593;-49
2022/10/18 15:40:29;;;;;;;3.30;2.70;;;;;;;20.89;52.30;102733.03;1509074;94;21190;-51
2022/10/18 15:42:59;;;;;;;5.90;2.98;;;;;;;20.86;52.38;102731.80;1511883;92;21082;-53
2022/10/18 15:45:37;;;;;;;4.30;2.72;;;;;;;20.83;52.38;102730.59;1533193;93;21137;-54
2022/10/18 15:48:16;;;;;;;2.77;2.40;;;;;;;20.82;52.30;102732.81;1537232;92;21190;-54
2022/10/18 15:50:50;;;;;;;2.75;2.35;;;;;;;20.80;52.21;102730.68;1590014;89;21078;-49
2022/10/18 15:53:31;;;;;;;2.40;2.20;;;;;;;20.78;52.06;102727.22;1590766;89;20990;-55
2022/10/18 15:56:05;;;;;;;3.92;2.50;;;;;;;20.76;52.06;102720.24;1590456;89;21069;-51
2022/10/18 15:58:44;;;;;;;2.87;2.10;;;;;;;20.73;52.03;102720.36;1589431;88;21069;-52
2022/10/18 16:01:24;;;;;;;2.45;2.15;;;;;;;20.71;51.94;102721.71;1594966;89;21062;-50
2022/10/18 16:03:51;;;;;;;4.80;2.40;;;;;;;20.68;51.74;102716.54;1601817;89;21074;-51
2022/10/18 16:06:18;;;;;;;3.17;2.50;;;;;;;20.67;51.62;102718.77;1598129;89;21558;-52
2022/10/18 16:08:48;;;;;;;6.10;2.80;;;;;;;20.65;51.52;102716.62;1598985;89;21102;-49
2022/10/18 16:11:24;;;;;;;4.12;2.20;;;;;;;20.62;51.53;102715.42;1592619;89;21075;-50
2022/10/18 16:13:52;;;;;;;3.12;2.40;;;;;;;20.59;51.48;102710.21;1609816;89;21140;-49
2022/10/18 16:16:24;;;;;;;3.70;2.15;;;;;;;20.54;51.40;102714.80;1609587;89;21141;-51
2022/10/18 16:18:51;;;;;;;4.45;2.17;;;;;;;20.52;51.42;102710.47;1608576;89;21094;-49
2022/10/18 16:21:22;;;;;;;2.98;2.17;;;;;;;20.46;51.67;102712.86;1616819;88;21098;-53
2022/10/18 16:23:48;;;;;;;4.33;2.35;;;;;;;20.42;51.84;102708.59;1579467;90;21014;-50
2022/10/18 16:26:16;;;;;;;4.10;2.30;;;;;;;20.40;52.05;102702.94;1555223;92;21057;-53
2022/10/18 16:28:43;;;;;;;4.40;2.40;;;;;;;20.37;52.06;102701.24;1575098;90;21111;-52
2022/10/18 16:31:19;;;;;;;2.58;2.00;;;;;;;20.35;52.01;102700.42;1575213;90;21078;-49
2022/10/18 16:33:46;;;;;;;3.60;2.08;;;;;;;20.33;51.79;102702.25;1576815;90;21054;-50
2022/10/18 16:36:16;;;;;;;2.95;2.70;;;;;;;20.33;51.64;102702.25;1555250;92;21085;-52
2022/10/18 16:38:43;;;;;;;2.47;1.90;;;;;;;20.32;51.66;102697.86;1570308;90;21096;-52
2022/10/18 16:41:12;;;;;;;2.08;1.87;;;;;;;20.32;51.85;102697.86;1584954;86;21081;-49
2022/10/18 16:43:39;;;;;;;3.62;2.17;;;;;;;20.32;52.05;102692.58;1661272;86;21058;-50
2022/10/18 16:46:06;;;;;;;2.35;2.15;;;;;;;20.33;52.12;102693.00;1648904;86;21055;-49
2022/10/18 16:48:33;;;;;;;1.90;1.80;;;;;;;20.32;52.09;102692.58;1657675;86;21067;-50
2022/10/18 16:51:00;;;;;;;2.20;1.98;;;;;;;20.32;52.07;102689.93;1656578;86;21559;-49
2022/10/18 16:53:27;;;;;;;2.62;2.10;;;;;;;20.32;51.97;102687.28;1637506;87;21058;-51
2022/10/18 16:55:57;;;;;;;2.08;1.80;;;;;;;20.31;51.99;102685.58;1660518;86;21063;-50
2022/10/18 16:58:25;;;;;;;2.05;1.85;;;;;;;20.32;51.88;102684.64;1616201;87;21042;-48
2022/10/18 17:00:51;;;;;;;1.90;1.70;;;;;;;20.31;51.78;102678.97;1656601;86;21102;-55
2022/10/18 17:03:19;;;;;;;3.33;1.82;;;;;;;20.31;51.66;102675.00;1663134;86;21083;-50
2022/10/18 17:05:46;;;;;;;3.40;2.12;;;;;;;20.31;51.59;102674.13;1661127;86;21087;-49
2022/10/18 17:08:25;;;;;;;2.90;1.85;;;;;;;20.30;51.63;102667.97;1668589;84;21062;-52
2022/10/18 17:10:54;;;;;;;3.30;1.87;;;;;;;20.28;51.63;102665.38;1658028;84;21094;-49
2022/10/18 17:13:23;;;;;;;2.37;2.02;;;;;;;20.28;51.65;102667.15;1660059;86;21099;-51
2022/10/18 17:15:50;;;;;;;3.70;1.95;;;;;;;20.27;51.58;102662.80;1655804;84;21110;-51
2022/10/18 17:18:20;;;;;;;1.87;1.70;;;;;;;20.23;51.65;102660.72;1656113;84;21019;-53
2022/10/18 17:20:48;;;;;;;3.33;2.00;;;;;;;20.21;51.74;102655.06;1657309;84;21174;-53
2022/10/18 17:23:14;;;;;;;2.15;1.90;;;;;;;20.18;52.00;102647.18;1658917;84;21105;-49
2022/10/18 17:25:45;;;;;;;5.65;2.08;;;;;;;20.15;52.02;102645.48;1661059;84;21594;-50
2022/10/18 17:28:15;;;;;;;2.35;1.75;;;;;;;20.13;51.83;102642.52;1659311;84;21519;-51
2022/10/18 17:30:42;;;;;;;3.37;2.12;;;;;;;20.11;51.64;102636.41;1658747;84;21566;-49
2022/10/18 17:33:09;;;;;;;4.35;2.37;;;;;;;20.09;51.74;102639.56;1657170;84;21011;-50
2022/10/18 17:35:36;;;;;;;2.55;1.80;;;;;;;20.09;51.92;102634.27;1656377;84;21177;-51
2022/10/18 17:38:04;;;;;;;5.22;2.40;;;;;;;20.08;51.91;102635.17;1656906;84;21083;-51
2022/10/18 17:40:31;;;;;;;5.72;1.87;;;;;;;20.07;51.71;102634.30;1658734;84;21091;-50
2022/10/18 17:42:58;;;;;;;2.08;1.72;;;;;;;20.08;51.73;102628.56;1669146;84;21646;-54
2022/10/18 17:45:26;;;;;;;3.45;2.22;;;;;;;20.09;51.88;102631.62;1662283;86;21114;-50
2022/10/18 17:47:53;;;;;;;5.78;2.12;;;;;;;20.08;51.48;102625.92;1666391;84;21054;-51
2022/10/18 17:50:19;;;;;;;4.25;2.17;;;;;;;20.08;51.06;102628.56;1664796;84;21035;-49
2022/10/18 17:52:46;;;;;;;5.67;2.17;;;;;;;20.08;51.06;102620.63;1664453;84;21491;-50
2022/10/18 17:55:13;;;;;;;2.77;1.95;;;;;;;20.08;51.29;102621.95;1664177;84;21026;-50
2022/10/18 17:57:41;;;;;;;3.02;2.22;;;;;;;20.06;51.20;102613.21;1663522;84;21038;-49